Milton, Florida
Current Conditions -  °F | °C
As of 1:56 PM on Monday 24 Nov 2014 (Local Time) from KNDZ Reporting Station
Scattered Clouds Scattered Clouds  
Wind Chill: 80°   Ceiling: Unl
Heat Index: 82°   Visibility: 10mi
Dew Point: 64°   Wind: 8mph
Humidity: 58%   Direction: 170°S
Pressure: 29.81"   Gusts: NA
Location:  30.63°N, 87.04°W
Report Text: KNDZ 241956Z 17007KT 10SM FEW033 SCT100 SCT250 27/18 A2981 RMK AO2 SLP081 T02670178 $
Loading
Personal Weather Stations






























Interactive Weather Map New forecast layout! Learn more

10-Day Weather Forecast

Advertisements
Track Severe Weather on mobile